Orbital elements of FENGYUN 1C DEB
| Launched | 9 May 1999 |
| Flight ended | – |
| Launch site | Taiyuan Space Center, PRC |
| Owner | People's Republic of China |
| NORAD ID | 29856 |
| Date fetched |
Epoch osculation |
Inc. [°] |
Ecc. | RA asc node [hr] |
Arg Peri. [°] |
Mean anom [°] |
Mean motion [rev/day] |
Abs. mag |
| Date fetched |
Epoch osculation |
Inc. [°] |
Ecc. | RA asc node [hr] |
Arg Peri. [°] |
Mean anom [°] |
Mean motion [rev/day] |
Abs. mag |
| 2026 May 05 17:57 | 2026 May 05 06:19:46 | 98.6845 | 0.02456 | 15.2679 | 221.8623 | 164.3754 | 14.53181 | – |
| 2026 May 04 17:57 | 2026 Apr 30 12:47:35 | 98.6840 | 0.02456 | 14.9409 | 236.2606 | 164.3754 | 14.53181 | – |
| 2026 May 03 17:57 | 2026 Apr 30 12:47:35 | 98.6840 | 0.02456 | 14.9409 | 236.2606 | 164.3754 | 14.53181 | – |
| 2026 May 02 17:57 | 2026 Apr 30 12:47:35 | 98.6840 | 0.02456 | 14.9409 | 236.2606 | 164.3754 | 14.53181 | – |
| 2026 May 01 17:56 | 2026 Apr 30 12:47:35 | 98.6840 | 0.02456 | 14.9409 | 236.2606 | 164.3754 | 14.53181 | – |
| 2026 Apr 30 17:56 | 2026 Apr 30 12:47:35 | 98.6840 | 0.02456 | 14.9409 | 236.2606 | 164.3754 | 14.53181 | – |
| 2026 Apr 29 17:57 | 2026 Apr 24 05:53:58 | 98.6805 | 0.02456 | 14.5062 | 255.4515 | 164.3754 | 14.53181 | – |
| 2026 Apr 28 17:56 | 2026 Apr 24 05:53:58 | 98.6805 | 0.02456 | 14.5062 | 255.4515 | 164.3754 | 14.53181 | – |
| 2026 Apr 27 17:58 | 2026 Apr 24 05:53:58 | 98.6805 | 0.02456 | 14.5062 | 255.4515 | 164.3754 | 14.53181 | – |
| 2026 Apr 26 17:58 | 2026 Apr 24 05:53:58 | 98.6805 | 0.02456 | 14.5062 | 255.4515 | 164.3754 | 14.53181 | – |
| 2026 Apr 25 17:58 | 2026 Apr 24 05:53:58 | 98.6805 | 0.02456 | 14.5062 | 255.4515 | 164.3754 | 14.53181 | – |
| 2026 Apr 24 17:59 | 2026 Apr 24 05:53:58 | 98.6805 | 0.02456 | 14.5062 | 255.4515 | 164.3754 | 14.53181 | – |
| 2026 Apr 23 17:57 | 2026 Apr 19 05:14:09 | 98.6830 | 0.02452 | 14.1590 | 270.7969 | 164.3754 | 14.53181 | – |
| 2026 Apr 22 17:57 | 2026 Apr 19 05:14:09 | 98.6830 | 0.02452 | 14.1590 | 270.7969 | 164.3754 | 14.53181 | – |
| 2026 Apr 21 17:57 | 2026 Apr 19 05:14:09 | 98.6830 | 0.02452 | 14.1590 | 270.7969 | 164.3754 | 14.53181 | – |
| 2026 Apr 20 17:57 | 2026 Apr 19 05:14:09 | 98.6830 | 0.02452 | 14.1590 | 270.7969 | 164.3754 | 14.53181 | – |
| 2026 Apr 19 17:58 | 2026 Apr 19 05:14:09 | 98.6830 | 0.02452 | 14.1590 | 270.7969 | 164.3754 | 14.53181 | – |
| 2026 Apr 18 17:56 | 2026 Apr 13 05:25:22 | 98.6820 | 0.02453 | 13.7450 | 289.1218 | 164.3754 | 14.53181 | – |
| 2026 Apr 16 17:57 | 2026 Apr 13 05:25:22 | 98.6820 | 0.02453 | 13.7450 | 289.1218 | 164.3754 | 14.53181 | – |
| 2026 Apr 14 17:57 | 2026 Apr 13 05:25:22 | 98.6820 | 0.02453 | 13.7450 | 289.1218 | 164.3754 | 14.53181 | – |
| 2026 Apr 13 17:57 | 2026 Apr 13 05:25:22 | 98.6820 | 0.02453 | 13.7450 | 289.1218 | 164.3754 | 14.53181 | – |
| 2026 Apr 12 17:57 | 2026 Apr 08 06:22:52 | 98.6814 | 0.02453 | 13.4024 | 304.3273 | 164.3754 | 14.53181 | – |
| 2026 Apr 11 17:57 | 2026 Apr 08 06:22:52 | 98.6814 | 0.02453 | 13.4024 | 304.3273 | 164.3754 | 14.53181 | – |
| 2026 Apr 10 17:58 | 2026 Apr 08 06:22:52 | 98.6814 | 0.02453 | 13.4024 | 304.3273 | 164.3754 | 14.53181 | – |
| 2026 Apr 09 18:01 | 2026 Apr 08 06:22:52 | 98.6814 | 0.02453 | 13.4024 | 304.3273 | 164.3754 | 14.53181 | – |
| 2026 Apr 08 17:57 | 2026 Apr 08 06:22:52 | 98.6814 | 0.02453 | 13.4024 | 304.3273 | 164.3754 | 14.53181 | – |